Time;durP1;ratioP1;P1;durP2;ratioP2;P2;SDS_P1;SDS_P2;PMS_P1;PMS_P2;Temp;Humidity;BMP_temperature;BMP_pressure;BME280_temperature;BME280_humidity;BME280_pressure;Samples;Min_cycle;Max_cycle;Signal;HPM_P1;HPM_P2
2022/08/21 00:00:12;;;;;;;8.52;4.85;;;;;;;;;;5017646;28;93440;-73
2022/08/21 00:02:44;;;;;;;16.08;5.32;;;;;;;;;;5016418;28;92406;-74
2022/08/21 00:05:10;;;;;;;10.43;5.63;;;;;;;;;;4999850;28;94793;-73
2022/08/21 00:07:37;;;;;;;11.02;5.22;;;;;;;;;;4997465;28;92426;-73
2022/08/21 00:10:04;;;;;;;7.43;4.60;;;;;;;;;;4996709;28;93052;-73
2022/08/21 00:12:30;;;;;;;7.28;4.80;;;;;;;;;;4997289;28;93487;-74
2022/08/21 00:14:57;;;;;;;12.70;5.53;;;;;;;;;;5000648;28;93420;-73
2022/08/21 00:17:25;;;;;;;6.95;5.22;;;;;;;;;;5016535;28;93725;-73
2022/08/21 00:19:52;;;;;;;11.00;4.18;;;;;;;;;;5005945;28;93439;-73
2022/08/21 00:22:18;;;;;;;11.35;5.50;;;;;;;;;;5012409;28;91723;-73
2022/08/21 00:24:44;;;;;;;7.20;4.70;;;;;;;;;;5017106;28;93127;-73
2022/08/21 00:27:11;;;;;;;5.63;4.80;;;;;;;;;;5001663;28;93270;-73
2022/08/21 00:29:37;;;;;;;13.05;4.80;;;;;;;;;;4982424;28;94805;-73
2022/08/21 00:32:03;;;;;;;7.60;4.70;;;;;;;;;;4976897;28;93444;-73
2022/08/21 00:34:30;;;;;;;5.95;4.65;;;;;;;;;;4977327;28;92465;-73
2022/08/21 00:36:56;;;;;;;11.85;4.90;;;;;;;;;;4977390;28;92845;-73
2022/08/21 00:39:22;;;;;;;8.80;5.57;;;;;;;;;;4997073;28;94070;-74
2022/08/21 00:41:49;;;;;;;7.90;4.57;;;;;;;;;;4996795;28;92423;-73
2022/08/21 00:44:15;;;;;;;9.18;4.60;;;;;;;;;;4995955;28;93810;-73
2022/08/21 00:46:42;;;;;;;5.00;4.40;;;;;;;;;;4996207;28;92860;-73
2022/08/21 00:49:11;;;;;;;11.25;5.57;;;;;;;;;;4999639;28;92582;-73
2022/08/21 00:51:41;;;;;;;7.00;4.28;;;;;;;;;;5013664;28;93392;-73
2022/08/21 00:54:09;;;;;;;7.00;4.88;;;;;;;;;;5012844;28;94852;-73
2022/08/21 00:56:45;;;;;;;10.52;4.22;;;;;;;;;;4996254;28;96355;-73
2022/08/21 00:59:13;;;;;;;9.25;4.80;;;;;;;;;;4995507;28;94176;-73
2022/08/21 01:01:39;;;;;;;9.43;4.57;;;;;;;;;;4996121;28;92390;-73
2022/08/21 01:04:06;;;;;;;9.40;5.22;;;;;;;;;;4996480;28;93939;-73
2022/08/21 01:06:32;;;;;;;11.45;5.22;;;;;;;;;;4995639;28;94225;-73
2022/08/21 01:08:59;;;;;;;9.65;5.05;;;;;;;;;;4995795;28;92453;-73
2022/08/21 01:11:25;;;;;;;9.82;5.45;;;;;;;;;;4999606;28;94166;-73
2022/08/21 01:13:52;;;;;;;6.47;4.72;;;;;;;;;;4995510;28;92487;-73
2022/08/21 01:16:20;;;;;;;6.30;4.72;;;;;;;;;;4996259;28;93263;-73
2022/08/21 01:18:47;;;;;;;12.43;4.85;;;;;;;;;;4993526;28;95460;-73
2022/08/21 01:21:18;;;;;;;7.97;4.63;;;;;;;;;;5013806;28;92466;-73
2022/08/21 01:23:45;;;;;;;8.10;5.25;;;;;;;;;;5015858;28;94055;-73
2022/08/21 01:26:13;;;;;;;5.85;4.85;;;;;;;;;;5010841;28;93997;-73
2022/08/21 01:28:46;;;;;;;9.73;5.30;;;;;;;;;;5005251;28;92626;-73
2022/08/21 01:31:12;;;;;;;;;;;;;;;;;;5008148;28;93959;-73
2022/08/21 01:33:38;;;;;;;8.02;4.82;;;;;;;;;;5017952;28;122405;-73
2022/08/21 01:36:04;;;;;;;7.65;5.30;;;;;;;;;;4998134;28;93961;-73
2022/08/21 01:38:32;;;;;;;7.28;5.45;;;;;;;;;;4995719;28;94191;-73
2022/08/21 01:40:58;;;;;;;8.18;5.38;;;;;;;;;;4994389;28;92551;-73
2022/08/21 01:43:25;;;;;;;6.63;5.40;;;;;;;;;;4994265;28;94703;-73
2022/08/21 01:46:04;;;;;;;8.93;5.47;;;;;;;;;;4996351;28;93518;-73
2022/08/21 01:48:31;;;;;;;10.38;6.25;;;;;;;;;;5012474;28;92525;-73
2022/08/21 01:50:57;;;;;;;9.70;5.45;;;;;;;;;;5015445;28;93997;-73
2022/08/21 01:53:24;;;;;;;6.95;5.00;;;;;;;;;;5015438;28;94187;-73
2022/08/21 01:55:58;;;;;;;14.05;5.82;;;;;;;;;;5017882;28;92288;-73
2022/08/21 01:58:24;;;;;;;6.20;5.63;;;;;;;;;;4995689;28;93687;-73
2022/08/21 02:00:51;;;;;;;9.35;5.50;;;;;;;;;;4994928;28;91704;-73
2022/08/21 02:03:18;;;;;;;11.93;5.60;;;;;;;;;;5006061;28;92449;-73
2022/08/21 02:06:00;;;;;;;15.17;5.93;;;;;;;;;;5014759;28;94279;-73
2022/08/21 02:08:27;;;;;;;12.30;5.82;;;;;;;;;;5013255;28;95300;-73
2022/08/21 02:10:54;;;;;;;10.25;5.47;;;;;;;;;;5014947;28;96312;-73
2022/08/21 02:13:20;;;;;;;14.70;6.53;;;;;;;;;;5015309;28;93565;-73
2022/08/21 02:15:46;;;;;;;14.98;5.95;;;;;;;;;;5017260;28;92472;-72
2022/08/21 02:18:13;;;;;;;9.02;6.15;;;;;;;;;;5004354;28;94218;-72
2022/08/21 02:20:41;;;;;;;8.63;6.32;;;;;;;;;;5007397;28;92581;-73
2022/08/21 02:23:08;;;;;;;13.18;6.57;;;;;;;;;;5010019;28;93016;-73
2022/08/21 02:25:35;;;;;;;11.45;5.78;;;;;;;;;;4995657;28;93657;-73
2022/08/21 02:28:06;;;;;;;10.95;6.50;;;;;;;;;;4995160;28;92519;-72
2022/08/21 02:30:34;;;;;;;8.98;6.15;;;;;;;;;;4977218;28;93936;-74
2022/08/21 02:33:01;;;;;;;13.50;6.63;;;;;;;;;;4973190;28;96742;-73
2022/08/21 02:35:27;;;;;;;14.25;6.20;;;;;;;;;;4975142;28;92447;-73
2022/08/21 02:37:58;;;;;;;9.02;5.68;;;;;;;;;;4994641;28;94048;-72
2022/08/21 02:40:26;;;;;;;10.25;6.10;;;;;;;;;;4995449;28;93578;-72
2022/08/21 02:42:53;;;;;;;10.57;6.43;;;;;;;;;;4994568;28;92851;-73
2022/08/21 02:45:19;;;;;;;11.73;6.10;;;;;;;;;;4994720;28;93365;-75
2022/08/21 02:47:54;;;;;;;12.98;6.40;;;;;;;;;;5000425;28;92505;-74
2022/08/21 02:50:21;;;;;;;14.82;6.82;;;;;;;;;;5014593;28;93962;-73
2022/08/21 02:52:48;;;;;;;15.07;6.22;;;;;;;;;;5014431;28;93451;-73
2022/08/21 02:55:21;;;;;;;10.85;5.90;;;;;;;;;;5014408;28;92605;-73
2022/08/21 02:57:47;;;;;;;13.70;6.63;;;;;;;;;;5012043;28;94918;-73
2022/08/21 03:00:14;;;;;;;7.90;6.32;;;;;;;;;;5017334;28;94235;-73
2022/08/21 03:02:40;;;;;;;13.15;6.13;;;;;;;;;;5014208;28;93349;-73
2022/08/21 03:05:08;;;;;;;8.35;6.45;;;;;;;;;;5013671;28;93440;-73
2022/08/21 03:07:36;;;;;;;8.73;6.80;;;;;;;;;;5014678;28;93021;-73
2022/08/21 03:10:03;;;;;;;12.88;6.47;;;;;;;;;;5013700;28;93934;-73
2022/08/21 03:12:29;;;;;;;8.88;6.50;;;;;;;;;;5013719;28;94220;-73
2022/08/21 03:14:57;;;;;;;8.80;6.32;;;;;;;;;;5014406;28;91723;-73
2022/08/21 03:17:24;;;;;;;18.85;6.13;;;;;;;;;;5006452;28;92398;-73
2022/08/21 03:19:55;;;;;;;10.80;6.53;;;;;;;;;;4993659;28;94190;-73
2022/08/21 03:22:21;;;;;;;8.95;5.80;;;;;;;;;;4996068;28;94855;-73
2022/08/21 03:24:48;;;;;;;12.82;6.50;;;;;;;;;;4993606;28;93417;-73
2022/08/21 03:27:15;;;;;;;8.43;6.50;;;;;;;;;;4994142;28;92723;-73
2022/08/21 03:29:41;;;;;;;12.68;6.47;;;;;;;;;;4995078;28;93920;-73
2022/08/21 03:32:10;;;;;;;12.45;7.00;;;;;;;;;;4995555;28;93375;-73
2022/08/21 03:34:37;;;;;;;12.57;6.72;;;;;;;;;;4997515;28;92471;-73
2022/08/21 03:37:05;;;;;;;12.02;6.60;;;;;;;;;;5000319;28;92915;-73
2022/08/21 03:39:31;;;;;;;8.45;6.30;;;;;;;;;;4991452;28;93019;-73
2022/08/21 03:41:59;;;;;;;6.20;5.60;;;;;;;;;;5013527;28;94271;-73
2022/08/21 03:44:28;;;;;;;8.82;6.40;;;;;;;;;;5016137;28;93846;-73
2022/08/21 03:46:55;;;;;;;15.48;6.20;;;;;;;;;;4995008;28;95394;-73
2022/08/21 03:49:22;;;;;;;13.35;6.28;;;;;;;;;;4996659;28;95731;-73
2022/08/21 03:51:48;;;;;;;11.85;6.72;;;;;;;;;;5002129;28;94194;-73
2022/08/21 03:54:25;;;;;;;9.30;6.38;;;;;;;;;;5000904;28;93897;-73
2022/08/21 03:56:54;;;;;;;12.25;6.13;;;;;;;;;;5000608;28;94101;-73
2022/08/21 03:59:20;;;;;;;7.93;6.57;;;;;;;;;;5000630;28;93641;-73
2022/08/21 04:01:53;;;;;;;15.75;6.75;;;;;;;;;;5010745;28;92653;-73
2022/08/21 04:04:20;;;;;;;8.13;5.90;;;;;;;;;;5003850;28;93368;-73
2022/08/21 04:06:46;;;;;;;14.35;6.78;;;;;;;;;;4997744;28;92513;-73
2022/08/21 04:09:13;;;;;;;8.85;6.55;;;;;;;;;;5011669;28;93921;-73
2022/08/21 04:11:39;;;;;;;12.93;6.82;;;;;;;;;;5001855;28;95706;-73
2022/08/21 04:14:05;;;;;;;14.80;7.10;;;;;;;;;;5014367;28;92451;-73
2022/08/21 04:16:32;;;;;;;18.13;7.70;;;;;;;;;;5005210;28;92930;-73
2022/08/21 04:18:58;;;;;;;14.18;7.90;;;;;;;;;;5008972;28;94428;-73
2022/08/21 04:21:24;;;;;;;19.13;7.55;;;;;;;;;;5014289;28;92579;-73
2022/08/21 04:23:53;;;;;;;13.32;7.30;;;;;;;;;;5007585;28;94072;-73
2022/08/21 04:26:19;;;;;;;21.83;7.95;;;;;;;;;;5000586;28;92544;-73
2022/08/21 04:28:46;;;;;;;10.63;7.60;;;;;;;;;;5006620;28;93876;-73
2022/08/21 04:31:12;;;;;;;13.63;7.60;;;;;;;;;;4981666;28;94382;-73
2022/08/21 04:33:39;;;;;;;10.77;7.70;;;;;;;;;;4977950;28;92542;-73
2022/08/21 04:36:06;;;;;;;13.80;7.90;;;;;;;;;;5002711;28;95198;-73
2022/08/21 04:38:33;;;;;;;11.02;7.28;;;;;;;;;;5003413;28;93332;-73
2022/08/21 04:41:04;;;;;;;14.15;8.30;;;;;;;;;;5011697;28;92383;-73
2022/08/21 04:43:30;;;;;;;19.67;8.55;;;;;;;;;;5001602;28;93970;-73
2022/08/21 04:45:57;;;;;;;14.50;8.43;;;;;;;;;;5004954;28;94128;-73
2022/08/21 04:48:26;;;;;;;13.27;9.45;;;;;;;;;;5006755;28;92623;-73
2022/08/21 04:50:57;;;;;;;16.42;8.35;;;;;;;;;;4997657;28;93795;-73
2022/08/21 04:53:26;;;;;;;11.25;9.05;;;;;;;;;;4990892;28;91710;-74
2022/08/21 04:55:54;;;;;;;17.00;9.43;;;;;;;;;;4997017;28;93148;-74
2022/08/21 04:58:21;;;;;;;12.57;9.80;;;;;;;;;;4995558;28;94434;-74
2022/08/21 05:00:48;;;;;;;14.38;9.02;;;;;;;;;;4994749;28;94841;-73
2022/08/21 05:03:16;;;;;;;11.30;8.88;;;;;;;;;;4996425;28;95548;-74
2022/08/21 05:05:43;;;;;;;15.52;10.35;;;;;;;;;;4995314;28;94547;-74
2022/08/21 05:08:11;;;;;;;15.93;10.35;;;;;;;;;;4995405;28;92467;-74
2022/08/21 05:10:38;;;;;;;21.33;10.13;;;;;;;;;;4997988;28;94131;-74
2022/08/21 05:13:05;;;;;;;14.68;10.13;;;;;;;;;;4995621;28;92269;-73
2022/08/21 05:15:32;;;;;;;17.77;9.93;;;;;;;;;;4995066;28;94230;-74
2022/08/21 05:17:58;;;;;;;13.90;9.98;;;;;;;;;;4999015;28;93415;-74
2022/08/21 05:20:27;;;;;;;19.63;10.07;;;;;;;;;;4993655;28;92441;-72
2022/08/21 05:22:53;;;;;;;13.77;9.60;;;;;;;;;;4984733;28;94032;-73
2022/08/21 05:25:20;;;;;;;25.08;9.75;;;;;;;;;;4995369;28;96740;-75
2022/08/21 05:27:48;;;;;;;14.82;9.88;;;;;;;;;;4993628;28;92561;-72
2022/08/21 05:30:18;;;;;;;11.82;9.82;;;;;;;;;;4995465;28;94049;-72
2022/08/21 05:32:45;;;;;;;13.35;9.10;;;;;;;;;;4997859;28;94072;-72
2022/08/21 05:35:11;;;;;;;13.65;8.82;;;;;;;;;;4995944;28;93830;-72
2022/08/21 05:37:37;;;;;;;12.32;6.65;;;;;;;;;;4995657;28;94216;-70
2022/08/21 05:40:05;;;;;;;13.32;8.57;;;;;;;;;;4997032;28;94022;-69
2022/08/21 05:42:49;;;;;;;8.05;5.50;;;;;;;;;;4976249;28;93948;-71
2022/08/21 05:45:24;;;;;;;10.63;6.10;;;;;;;;;;4975552;28;94923;-71
2022/08/21 05:48:13;;;;;;;19.75;6.00;;;;;;;;;;4982311;28;93349;-70
2022/08/21 05:50:39;;;;;;;11.55;5.93;;;;;;;;;;4980849;28;94865;-70
2022/08/21 05:53:06;;;;;;;7.68;5.82;;;;;;;;;;4974770;28;94291;-70
2022/08/21 05:55:35;;;;;;;13.68;5.78;;;;;;;;;;4977829;28;92466;-70
2022/08/21 05:58:01;;;;;;;9.80;5.35;;;;;;;;;;4982545;28;94414;-70
2022/08/21 06:00:27;;;;;;;6.85;4.93;;;;;;;;;;4993446;28;92863;-70
2022/08/21 06:02:54;;;;;;;15.07;5.68;;;;;;;;;;4997310;28;93859;-68
2022/08/21 06:05:20;;;;;;;9.70;5.28;;;;;;;;;;4986350;28;94321;-70
2022/08/21 06:08:03;;;;;;;14.15;6.25;;;;;;;;;;4981311;28;91749;-70
2022/08/21 06:10:29;;;;;;;16.60;6.97;;;;;;;;;;4980564;28;94015;-69
2022/08/21 06:12:55;;;;;;;11.65;6.15;;;;;;;;;;4984103;28;94288;-68
2022/08/21 06:15:22;;;;;;;14.77;6.47;;;;;;;;;;4981722;28;95339;-68
2022/08/21 06:17:48;;;;;;;11.80;6.53;;;;;;;;;;4975534;28;93275;-68
2022/08/21 06:20:15;;;;;;;14.48;7.10;;;;;;;;;;4975831;28;92753;-68
2022/08/21 06:22:41;;;;;;;21.88;7.28;;;;;;;;;;4973156;28;93940;-68
2022/08/21 06:25:09;;;;;;;13.23;6.93;;;;;;;;;;4975439;28;93566;-68
2022/08/21 06:27:35;;;;;;;17.92;6.68;;;;;;;;;;4977730;28;94145;-69
2022/08/21 06:30:02;;;;;;;12.85;6.13;;;;;;;;;;4973473;28;93064;-69
2022/08/21 06:32:29;;;;;;;15.70;6.63;;;;;;;;;;4979716;28;92736;-68
2022/08/21 06:34:55;;;;;;;15.55;6.82;;;;;;;;;;4988257;28;92528;-68
2022/08/21 06:37:22;;;;;;;14.02;6.50;;;;;;;;;;4997815;28;93168;-68
2022/08/21 06:39:48;;;;;;;19.92;6.57;;;;;;;;;;4992862;28;94872;-68
2022/08/21 06:42:15;;;;;;;14.35;6.65;;;;;;;;;;4975483;28;95501;-68
2022/08/21 06:44:43;;;;;;;12.10;6.00;;;;;;;;;;4989133;28;93413;-68
2022/08/21 06:47:10;;;;;;;17.95;7.10;;;;;;;;;;4977353;28;92505;-69
2022/08/21 06:49:36;;;;;;;13.20;6.50;;;;;;;;;;4987861;28;93285;-69
2022/08/21 06:52:03;;;;;;;15.23;6.20;;;;;;;;;;4998312;28;94412;-68
2022/08/21 06:54:30;;;;;;;14.65;6.97;;;;;;;;;;4976418;28;92500;-69
2022/08/21 06:56:56;;;;;;;15.80;6.95;;;;;;;;;;4979555;28;93409;-69
2022/08/21 06:59:23;;;;;;;13.15;5.28;;;;;;;;;;4982755;28;93510;-71
2022/08/21 07:01:49;;;;;;;15.82;6.80;;;;;;;;;;4976563;28;93086;-69
2022/08/21 07:04:15;;;;;;;15.80;5.82;;;;;;;;;;4971637;28;95655;-69
2022/08/21 07:06:42;;;;;;;16.27;6.43;;;;;;;;;;4984080;28;92520;-70
2022/08/21 07:09:09;;;;;;;11.43;5.85;;;;;;;;;;4986975;28;92876;-69
2022/08/21 07:11:36;;;;;;;13.65;6.28;;;;;;;;;;4973580;28;93670;-69
2022/08/21 07:14:12;;;;;;;17.25;5.90;;;;;;;;;;4981006;28;92523;-69
2022/08/21 07:16:46;;;;;;;15.35;6.28;;;;;;;;;;4988139;28;92826;-71
2022/08/21 07:19:12;;;;;;;19.27;5.70;;;;;;;;;;4974455;28;93713;-70
2022/08/21 07:21:38;;;;;;;15.57;6.03;;;;;;;;;;4997482;28;93724;-70
2022/08/21 07:24:05;;;;;;;14.93;5.90;;;;;;;;;;4997469;28;93518;-70
2022/08/21 07:26:31;;;;;;;15.82;5.53;;;;;;;;;;4998693;28;94074;-69
2022/08/21 07:28:58;;;;;;;9.57;4.75;;;;;;;;;;4988710;28;94834;-69
2022/08/21 07:31:25;;;;;;;17.83;6.30;;;;;;;;;;4994764;28;93447;-69
2022/08/21 07:33:51;;;;;;;16.67;5.32;;;;;;;;;;5000434;28;92470;-69
2022/08/21 07:36:18;;;;;;;16.45;5.55;;;;;;;;;;4975170;28;93476;-69
2022/08/21 07:38:45;;;;;;;19.80;5.70;;;;;;;;;;4987374;28;93966;-69
2022/08/21 07:41:31;;;;;;;17.25;5.25;;;;;;;;;;4983472;28;92487;-69
2022/08/21 07:43:58;;;;;;;15.27;5.45;;;;;;;;;;4997681;28;92690;-70
2022/08/21 07:46:25;;;;;;;14.23;4.88;;;;;;;;;;4976996;28;91770;-70
2022/08/21 07:48:52;;;;;;;19.17;4.93;;;;;;;;;;4993515;28;93380;-71
2022/08/21 07:51:20;;;;;;;16.58;4.80;;;;;;;;;;4995015;28;93068;-70
2022/08/21 07:53:48;;;;;;;19.58;5.00;;;;;;;;;;4995957;28;94915;-71
2022/08/21 07:56:14;;;;;;;16.95;4.95;;;;;;;;;;4994044;28;95515;-72
2022/08/21 07:58:41;;;;;;;17.15;6.53;;;;;;;;;;4993952;28;93137;-70
2022/08/21 08:01:07;;;;;;;20.75;5.13;;;;;;;;;;4989726;28;92867;-70
2022/08/21 08:03:34;;;;;;;13.63;4.63;;;;;;;;;;4979762;28;93210;-71
2022/08/21 08:06:00;;;;;;;16.33;5.55;;;;;;;;;;4978721;28;94191;-70
2022/08/21 08:08:27;;;;;;;16.38;4.07;;;;;;;;;;4988227;28;93138;-71
2022/08/21 08:10:55;;;;;;;18.73;4.90;;;;;;;;;;4995603;28;92557;-70
2022/08/21 08:13:22;;;;;;;16.98;4.63;;;;;;;;;;4971129;28;94577;-71
2022/08/21 08:15:48;;;;;;;15.68;4.72;;;;;;;;;;4971043;28;93905;-70
2022/08/21 08:18:14;;;;;;;11.82;4.53;;;;;;;;;;4991716;28;96747;-71
2022/08/21 08:20:41;;;;;;;17.30;5.43;;;;;;;;;;4994507;28;93889;-71
2022/08/21 08:23:11;;;;;;;15.85;4.65;;;;;;;;;;4989701;28;93788;-70
2022/08/21 08:25:37;;;;;;;15.35;4.07;;;;;;;;;;4990483;28;94370;-71
2022/08/21 08:28:04;;;;;;;20.55;4.88;;;;;;;;;;5000358;28;93984;-70
2022/08/21 08:30:42;;;;;;;18.38;4.40;;;;;;;;;;4980994;28;94362;-72
2022/08/21 08:33:09;;;;;;;10.50;3.97;;;;;;;;;;5015247;28;92846;-70
2022/08/21 08:35:36;;;;;;;13.93;3.88;;;;;;;;;;4983617;28;94047;-71
2022/08/21 08:38:04;;;;;;;14.63;3.92;;;;;;;;;;4986149;28;94114;-70
2022/08/21 08:40:39;;;;;;;16.70;4.32;;;;;;;;;;4976961;28;92383;-71
2022/08/21 08:43:08;;;;;;;12.10;4.63;;;;;;;;;;4974271;28;95315;-70
2022/08/21 08:45:41;;;;;;;13.88;4.50;;;;;;;;;;4975945;28;93383;-70
2022/08/21 08:48:09;;;;;;;11.00;3.65;;;;;;;;;;4979256;28;93120;-71
2022/08/21 08:50:39;;;;;;;;;;;;;;;;;;4982012;28;92800;-71
2022/08/21 08:53:08;;;;;;;11.68;3.85;;;;;;;;;;4997103;28;118277;-71
2022/08/21 08:55:35;;;;;;;14.52;4.22;;;;;;;;;;4996203;28;92899;-71
2022/08/21 08:58:02;;;;;;;19.42;4.30;;;;;;;;;;4994898;28;94191;-71
2022/08/21 09:00:29;;;;;;;9.95;3.72;;;;;;;;;;4977842;28;91949;-71
2022/08/21 09:02:59;;;;;;;11.85;3.78;;;;;;;;;;4975771;28;93154;-71
2022/08/21 09:05:27;;;;;;;12.25;3.70;;;;;;;;;;4976986;28;92511;-71
2022/08/21 09:08:00;;;;;;;14.10;3.72;;;;;;;;;;4975075;28;94890;-71
2022/08/21 09:10:46;;;;;;;13.77;3.53;;;;;;;;;;4979264;28;94231;-71
2022/08/21 09:13:34;;;;;;;10.00;3.40;;;;;;;;;;4976376;28;92472;-71
2022/08/21 09:16:13;;;;;;;21.08;4.63;;;;;;;;;;4984070;28;93000;-71
2022/08/21 09:19:03;;;;;;;13.65;2.83;;;;;;;;;;4995272;28;93433;-71
2022/08/21 09:21:41;;;;;;;13.43;3.50;;;;;;;;;;5004102;28;92482;-70
2022/08/21 09:24:10;;;;;;;11.32;3.47;;;;;;;;;;5015110;28;93329;-70
2022/08/21 09:26:44;;;;;;;8.52;3.20;;;;;;;;;;5016343;28;92312;-71
2022/08/21 09:29:11;;;;;;;13.07;3.28;;;;;;;;;;5016192;28;93345;-71
2022/08/21 09:31:37;;;;;;;16.90;3.20;;;;;;;;;;5015104;28;93380;-70
2022/08/21 09:34:06;;;;;;;7.55;3.25;;;;;;;;;;4998353;28;96449;-71
2022/08/21 09:36:38;;;;;;;9.38;3.05;;;;;;;;;;4996387;28;96413;-71
2022/08/21 09:39:05;;;;;;;13.85;2.85;;;;;;;;;;4994933;28;93390;-70
2022/08/21 09:41:33;;;;;;;12.15;3.47;;;;;;;;;;4996043;28;92398;-70
2022/08/21 09:43:59;;;;;;;13.20;3.25;;;;;;;;;;4995133;28;93109;-71
2022/08/21 09:46:27;;;;;;;13.82;3.42;;;;;;;;;;4995444;28;94231;-71
2022/08/21 09:48:55;;;;;;;11.40;3.45;;;;;;;;;;4995336;28;92439;-71
2022/08/21 09:51:24;;;;;;;13.40;3.58;;;;;;;;;;4995994;28;92980;-71
2022/08/21 09:53:52;;;;;;;8.38;2.97;;;;;;;;;;4994405;28;93368;-71
2022/08/21 09:59:10;;;;;;;;;;;;;;;;;;4993700;28;95722;-71
2022/08/21 10:01:42;;;;;;;11.05;2.95;;;;;;;;;;4995984;28;118341;-71
2022/08/21 10:04:08;;;;;;;11.57;2.97;;;;;;;;;;4995707;28;93116;-71
2022/08/21 10:06:35;;;;;;;16.63;3.33;;;;;;;;;;4994894;28;94136;-71
2022/08/21 10:09:04;;;;;;;11.80;3.13;;;;;;;;;;4989674;28;92452;-71
2022/08/21 10:11:31;;;;;;;11.77;2.88;;;;;;;;;;4976336;28;92541;-71
2022/08/21 10:13:57;;;;;;;6.90;2.50;;;;;;;;;;4974558;28;93259;-71
2022/08/21 10:16:42;;;;;;;11.25;2.92;;;;;;;;;;4976175;28;91715;-71
2022/08/21 10:19:14;;;;;;;11.15;3.50;;;;;;;;;;4978815;28;93340;-71
2022/08/21 10:21:54;;;;;;;9.98;2.60;;;;;;;;;;4991792;28;92544;-71
2022/08/21 10:24:28;;;;;;;13.32;3.35;;;;;;;;;;4993594;28;95095;-71
2022/08/21 10:27:08;;;;;;;13.40;3.00;;;;;;;;;;4995129;28;93286;-71
2022/08/21 10:29:50;;;;;;;11.32;2.63;;;;;;;;;;4994718;28;92464;-71
2022/08/21 10:32:26;;;;;;;7.68;2.50;;;;;;;;;;4984316;28;94035;-71
2022/08/21 10:35:07;;;;;;;7.95;2.58;;;;;;;;;;4994080;28;94166;-71
2022/08/21 10:37:36;;;;;;;10.73;2.97;;;;;;;;;;4995650;28;92460;-71
2022/08/21 10:40:15;;;;;;;17.23;3.13;;;;;;;;;;4981921;28;93816;-71
2022/08/21 10:42:55;;;;;;;12.02;4.38;;;;;;;;;;4974372;28;91880;-71
2022/08/21 10:45:32;;;;;;;8.98;3.13;;;;;;;;;;4975502;28;93512;-71
2022/08/21 10:48:03;;;;;;;9.77;3.75;;;;;;;;;;4974525;28;93700;-71
2022/08/21 10:50:31;;;;;;;9.10;3.30;;;;;;;;;;4978800;28;95261;-71
2022/08/21 10:53:16;;;;;;;16.08;3.33;;;;;;;;;;4994632;28;95528;-71
2022/08/21 10:55:56;;;;;;;10.93;3.10;;;;;;;;;;4993654;28;94130;-71
2022/08/21 10:58:28;;;;;;;10.35;3.10;;;;;;;;;;4994768;28;92433;-71
2022/08/21 11:01:00;;;;;;;9.85;2.90;;;;;;;;;;4994707;28;93961;-71
2022/08/21 11:03:34;;;;;;;14.25;3.40;;;;;;;;;;4996611;28;93418;-71
2022/08/21 11:06:04;;;;;;;11.90;2.63;;;;;;;;;;4994777;28;93322;-71
2022/08/21 11:08:39;;;;;;;10.52;3.08;;;;;;;;;;4994916;28;92732;-71
2022/08/21 11:11:09;;;;;;;11.10;2.90;;;;;;;;;;4994390;28;92616;-71
2022/08/21 11:13:38;;;;;;;8.05;3.47;;;;;;;;;;4994752;28;93973;-71
2022/08/21 11:16:23;;;;;;;7.28;3.22;;;;;;;;;;4992895;28;95995;-71
2022/08/21 11:18:57;;;;;;;12.25;2.80;;;;;;;;;;4994078;28;92472;-71
2022/08/21 11:21:26;;;;;;;6.68;2.72;;;;;;;;;;4997897;28;93513;-71
2022/08/21 11:23:57;;;;;;;6.68;2.85;;;;;;;;;;4993378;28;94138;-71
2022/08/21 11:26:27;;;;;;;10.80;2.83;;;;;;;;;;4997919;28;92354;-71
2022/08/21 11:29:03;;;;;;;13.57;3.25;;;;;;;;;;4994017;28;94182;-71
2022/08/21 11:31:33;;;;;;;7.03;2.55;;;;;;;;;;4993508;28;92402;-71
2022/08/21 11:33:59;;;;;;;9.48;3.08;;;;;;;;;;4994711;28;93297;-71
2022/08/21 11:36:28;;;;;;;8.60;2.55;;;;;;;;;;4993792;28;93300;-71
2022/08/21 11:39:06;;;;;;;7.45;2.70;;;;;;;;;;4996183;28;94178;-72
2022/08/21 11:41:42;;;;;;;9.77;3.80;;;;;;;;;;4997056;28;95401;-71
2022/08/21 11:44:16;;;;;;;11.90;3.60;;;;;;;;;;4974343;28;94293;-70
2022/08/21 11:46:48;;;;;;;6.85;2.92;;;;;;;;;;4993215;28;93016;-71
2022/08/21 11:49:33;;;;;;;9.10;3.33;;;;;;;;;;4995834;28;93748;-73
2022/08/21 11:52:09;;;;;;;11.38;3.85;;;;;;;;;;4984464;28;93853;-71
2022/08/21 11:54:41;;;;;;;7.47;2.75;;;;;;;;;;4984591;28;93832;-71
2022/08/21 11:57:13;;;;;;;8.25;2.53;;;;;;;;;;4995222;28;94305;-72
2022/08/21 11:59:39;;;;;;;;;;;;;;;;;;4988617;28;93871;-71
2022/08/21 12:02:12;;;;;;;10.27;3.10;;;;;;;;;;4988631;28;120768;-71
2022/08/21 12:04:43;;;;;;;8.00;2.83;;;;;;;;;;4988902;28;94212;-70
2022/08/21 12:07:15;;;;;;;7.45;3.05;;;;;;;;;;4999069;28;95481;-70
2022/08/21 12:09:51;;;;;;;9.07;2.85;;;;;;;;;;4992767;28;95375;-70
2022/08/21 12:12:32;;;;;;;14.07;3.35;;;;;;;;;;4988663;28;94349;-70
2022/08/21 12:15:12;;;;;;;6.65;3.00;;;;;;;;;;4996649;28;94119;-70
2022/08/21 12:17:40;;;;;;;5.80;3.30;;;;;;;;;;4991670;28;94110;-70
2022/08/21 12:20:26;;;;;;;12.57;3.15;;;;;;;;;;4994757;28;93358;-71
2022/08/21 12:22:54;;;;;;;7.68;2.80;;;;;;;;;;4991283;28;95580;-70
2022/08/21 12:25:22;;;;;;;10.80;3.63;;;;;;;;;;4991744;28;93708;-70
2022/08/21 12:28:06;;;;;;;7.13;2.80;;;;;;;;;;4995677;28;92806;-71
2022/08/21 12:30:34;;;;;;;7.80;3.20;;;;;;;;;;4978302;28;92599;-71
2022/08/21 12:33:02;;;;;;;9.73;3.50;;;;;;;;;;4992936;28;96053;-70
2022/08/21 12:35:37;;;;;;;9.73;2.83;;;;;;;;;;4996117;28;92417;-71
2022/08/21 12:38:08;;;;;;;12.43;3.28;;;;;;;;;;4991089;28;94097;-71
2022/08/21 12:40:51;;;;;;;10.65;3.05;;;;;;;;;;4994620;28;92491;-71
2022/08/21 12:43:19;;;;;;;5.95;2.67;;;;;;;;;;4995381;28;94206;-71
2022/08/21 12:45:47;;;;;;;10.48;3.83;;;;;;;;;;4993720;28;94380;-71
2022/08/21 12:48:22;;;;;;;9.23;2.85;;;;;;;;;;4978698;28;92756;-72
2022/08/21 12:50:56;;;;;;;6.63;2.47;;;;;;;;;;4985901;28;93070;-72
2022/08/21 12:53:26;;;;;;;8.90;2.90;;;;;;;;;;4996719;28;94478;-71
2022/08/21 12:55:59;;;;;;;7.25;2.65;;;;;;;;;;4998435;28;92925;-71
2022/08/21 12:58:25;;;;;;;3.53;2.25;;;;;;;;;;4995124;28;96797;-71
2022/08/21 13:00:54;;;;;;;7.47;2.78;;;;;;;;;;4992219;28;92907;-71
2022/08/21 13:03:21;;;;;;;9.70;2.30;;;;;;;;;;4996165;28;94141;-71
2022/08/21 13:05:48;;;;;;;7.80;2.75;;;;;;;;;;4990950;28;94411;-71
2022/08/21 13:08:14;;;;;;;6.82;2.83;;;;;;;;;;4994803;28;92402;-71
2022/08/21 13:10:41;;;;;;;10.38;3.22;;;;;;;;;;4992971;28;93170;-71
2022/08/21 13:13:09;;;;;;;6.80;2.75;;;;;;;;;;4996488;28;93987;-73
2022/08/21 13:15:39;;;;;;;8.77;2.65;;;;;;;;;;4996533;28;91709;-71
2022/08/21 13:18:23;;;;;;;5.95;2.65;;;;;;;;;;4999059;28;92759;-71
2022/08/21 13:20:49;;;;;;;9.02;2.55;;;;;;;;;;4991962;28;92484;-71
2022/08/21 13:23:20;;;;;;;8.68;2.65;;;;;;;;;;4994391;28;95152;-71
2022/08/21 13:25:46;;;;;;;5.63;2.28;;;;;;;;;;4995762;28;93502;-71
2022/08/21 13:28:14;;;;;;;5.03;2.33;;;;;;;;;;4996383;28;92463;-71
2022/08/21 13:30:43;;;;;;;5.68;2.20;;;;;;;;;;4995585;28;92390;-71
2022/08/21 13:33:10;;;;;;;9.60;2.67;;;;;;;;;;4996649;28;93448;-71
2022/08/21 13:35:53;;;;;;;10.10;3.75;;;;;;;;;;4993852;28;92400;-70
2022/08/21 13:38:21;;;;;;;11.07;2.63;;;;;;;;;;4975758;28;93298;-71
2022/08/21 13:40:56;;;;;;;7.53;2.42;;;;;;;;;;4979227;28;93505;-71
2022/08/21 13:43:26;;;;;;;3.97;2.10;;;;;;;;;;4993686;28;93681;-71
2022/08/21 13:45:53;;;;;;;5.80;2.45;;;;;;;;;;4994243;28;93448;-71
2022/08/21 13:48:21;;;;;;;7.07;2.50;;;;;;;;;;4993930;28;94900;-71
2022/08/21 13:50:47;;;;;;;10.48;3.00;;;;;;;;;;4995472;28;96226;-71
2022/08/21 13:53:29;;;;;;;9.10;2.72;;;;;;;;;;4994849;28;94295;-71
2022/08/21 13:55:55;;;;;;;8.13;2.58;;;;;;;;;;4993655;28;92992;-71
2022/08/21 13:58:46;;;;;;;12.10;2.70;;;;;;;;;;4976061;28;93029;-71
2022/08/21 14:01:20;;;;;;;7.57;3.33;;;;;;;;;;4975986;28;93432;-71
2022/08/21 14:03:48;;;;;;;7.93;2.28;;;;;;;;;;4978753;28;92553;-71
2022/08/21 14:06:17;;;;;;;6.10;2.45;;;;;;;;;;4975417;28;92670;-71
2022/08/21 14:08:48;;;;;;;6.63;2.20;;;;;;;;;;4976015;28;92441;-71
2022/08/21 14:11:15;;;;;;;7.25;2.33;;;;;;;;;;4975900;28;93903;-71
2022/08/21 14:13:47;;;;;;;8.05;2.08;;;;;;;;;;4972990;28;95584;-71
2022/08/21 14:16:27;;;;;;;5.97;2.50;;;;;;;;;;4974656;28;92389;-71
2022/08/21 14:18:59;;;;;;;10.05;3.30;;;;;;;;;;4975269;28;93940;-72
2022/08/21 14:21:36;;;;;;;6.18;2.15;;;;;;;;;;4975094;28;94752;-71
2022/08/21 14:24:08;;;;;;;7.60;3.00;;;;;;;;;;4988394;28;94671;-71
2022/08/21 14:26:36;;;;;;;5.95;2.45;;;;;;;;;;4997474;28;93995;-71
2022/08/21 14:29:05;;;;;;;8.75;2.28;;;;;;;;;;4995577;28;92524;-71
2022/08/21 14:31:36;;;;;;;11.77;2.50;;;;;;;;;;4995494;28;93793;-72
2022/08/21 14:34:07;;;;;;;6.77;2.50;;;;;;;;;;4994171;28;94283;-71
2022/08/21 14:36:45;;;;;;;5.93;2.65;;;;;;;;;;4993757;28;92481;-71
2022/08/21 14:39:11;;;;;;;7.78;2.85;;;;;;;;;;4993276;28;94877;-71
2022/08/21 14:41:38;;;;;;;8.63;2.85;;;;;;;;;;4993645;28;94171;-71
2022/08/21 14:44:05;;;;;;;10.45;2.95;;;;;;;;;;4995585;28;92630;-71
2022/08/21 14:46:35;;;;;;;7.10;2.50;;;;;;;;;;4997606;28;93106;-71
2022/08/21 14:49:19;;;;;;;5.90;2.90;;;;;;;;;;4993356;28;92724;-71
2022/08/21 14:51:45;;;;;;;9.45;2.60;;;;;;;;;;4992650;28;92920;-71